• Join FlightAware (Why Join?)
  • Login
  • US Flag 
07:32AM EDT


 

Airport Tracker/Info


-or-


 

Live Flight TrackerFlight Track Log ✈ ASQ6151 ✈ 04-May-2013 ✈ KGSO - KORD

Flight Track Log - Related Links

Times and Time Zones

All times are in EDT time to prevent confusion due to time zone crossing. See the ASQ6151 flight status page for this flight to view local times or setup timezone preferences in your user account.

Time Position Orientation Groundspeed Altitude Reporting Facility
EDT Latitude Longitude Course Direction KTS MPH feet Rate Location/Type
10:05AM 36.1936 -80.1100 308° West 304 350 9,100  Level Atlanta Center
10:06AM 36.2400 -80.1978 303° West 317 365 10,900 1,200 Climbing Atlanta Center
10:07AM 36.4288 -80.5243 302° West  Level FlightAware Approximate
10:07AM 36.2953 -80.2983 304° West 322 371 11,600  Level Atlanta Center
10:08AM 36.4800 -80.6267 302° West  Level FlightAware Approximate
10:08AM 36.3525 -80.3989 305° West 342 394 12,900  Level Atlanta Center
10:09AM 36.5397 -80.7216 307° West  Level FlightAware Approximate
10:09AM 36.4119 -80.5069 304° West 364 419 14,400  Level Atlanta Center
10:10AM 36.5906 -80.8208 308° West  Level FlightAware Approximate
10:10AM 36.4711 -80.6078 306° West 391 450 15,500  Level Atlanta Center
10:11AM 36.5306 -80.7161 304° West 391 450 16,500 1,020 Climbing Atlanta Center
10:12AM 36.5981 -80.8244 308° West 396 456 17,600 900 Climbing Atlanta Center
10:13AM 36.6722 -80.9483 307° West 401 461 18,300 900 Climbing Atlanta Center
10:14AM 36.7417 -81.0622 307° West 406 467 19,500 1,020 Climbing Atlanta Center
10:15AM 36.8089 -81.1764 306° West 405 466 20,400 900 Climbing Atlanta Center
10:16AM 36.8806 -81.2933 307° West 411 473 21,300 780 Climbing Atlanta Center
10:18AM 37.0297 -81.5294 308° West 435 501 22,800 1,140 Climbing Indianapolis Center
10:19AM 37.1017 -81.6472 307° West 427 491 24,900 1,500 Climbing Indianapolis Center
10:20AM 37.1700 -81.7600 307° West 411 473 25,900 960 Climbing Indianapolis Center
10:21AM 37.2383 -81.8753 307° West 412 474 27,000 1,080 Climbing Indianapolis Center
10:22AM 37.3067 -81.9875 307° West 408 470 28,200 1,200 Climbing Indianapolis Center
10:23AM 37.3847 -82.1192 307° West 405 466 29,500 1,020 Climbing Indianapolis Center
10:24AM 37.4519 -82.2325 307° West 403 464 30,400 840 Climbing Indianapolis Center
10:25AM 37.5208 -82.3492 307° West 414 476 31,300 780 Climbing Indianapolis Center
10:26AM 37.5908 -82.4664 307° West 418 481 32,100 780 Climbing Indianapolis Center
10:27AM 37.6606 -82.5858 306° West 423 487 33,000 840 Climbing Indianapolis Center
10:28AM 37.7322 -82.7072 307° West 430 495 33,900 900 Climbing Indianapolis Center
10:29AM 37.8150 -82.8486 307° West 430 495 34,900 660 Climbing Indianapolis Center
10:31AM 37.9556 -83.0917 306° West 428 493 36,000 300 Climbing Indianapolis Center
10:32AM 38.0294 -83.2194 306° West 445 512 36,000  Level Indianapolis Center
10:33AM 38.1061 -83.3531 306° West 462 532 36,000  Level Indianapolis Center
10:34AM 38.1853 -83.4889 307° West 477 549 36,000  Level Indianapolis Center
10:35AM 38.2450 -83.6397 297° West 485 558 36,000  Level Indianapolis Center
10:36AM 38.2922 -83.8253 288° West 476 548 36,000  Level Indianapolis Center
10:37AM 38.3319 -83.9806 288° West 465 535 36,000  Level Indianapolis Center
10:38AM 38.3733 -84.1328 289° West 458 527 36,000  Level Indianapolis Center
10:39AM 38.4214 -84.2847 292° West 464 534 36,000  Level Indianapolis Center
10:40AM 38.5350 -84.3775 327° Northwest 481 554 36,000  Level Indianapolis Center
10:41AM 38.6606 -84.4586 333° Northwest 489 563 36,000  Level Indianapolis Center
10:42AM 38.7742 -84.5342 333° Northwest 492 566 36,000  Level Indianapolis Center
10:43AM 38.8950 -84.6108 334° Northwest 485 558 36,000  Level Indianapolis Center
10:44AM 39.0267 -84.6964 333° Northwest 482 555 36,000 -60 Level Indianapolis Center
10:45AM 39.1475 -84.7769 333° Northwest 481 554 35,900 -1,260 Descending Indianapolis Center
10:46AM 39.2675 -84.8561 333° Northwest 482 555 33,500 -2,640 Descending Indianapolis Center
10:47AM 39.3925 -84.9375 333° Northwest 478 550 30,500 -2,880 Descending Indianapolis Center
10:48AM 39.5097 -85.0156 333° Northwest 477 549 27,600 -2,220 Descending Indianapolis Center
10:49AM 39.6228 -85.0908 333° Northwest 466 536 26,000 -840 Descending Indianapolis Center
10:50AM 39.7344 -85.1636 333° Northwest 457 526 26,000  Level Indianapolis Center
10:51AM 39.8672 -85.2533 333° Northwest 453 521 26,000  Level Indianapolis Center
10:52AM 39.9769 -85.3275 333° Northwest 449 517 26,000  Level Indianapolis Center
10:53AM 40.0922 -85.4053 333° Northwest 464 534 26,000  Level Indianapolis Center
10:54AM 40.1611 -85.4519 333° Northwest 469 540 26,000  Level Chicago Center
10:55AM 40.2783 -85.5306 333° Northwest 476 548 26,000 -480 Level Chicago Center
10:56AM 40.3764 -85.6436 319° Northwest 478 550 25,100 -960 Descending Chicago Center
10:57AM 40.4594 -85.7722 310° West 468 539 24,100 -540 Descending Chicago Center
10:58AM 40.5386 -85.8942 311° West 448 516 24,000 -180 Descending Chicago Center
10:59AM 40.6189 -86.0158 311° West 445 512 23,800 -660 Descending Chicago Center
11:00AM 40.7092 -86.1567 310° West 463 533 22,700 -1,080 Descending Chicago Center
11:02AM 40.8281 -86.3428 310° West 435 501 21,200 -1,020 Descending Indianapolis Center
11:02AM 40.8653 -86.4022 310° West 429 494 20,700 -960 Descending Chicago Center
11:03AM 40.9417 -86.5197 311° West 424 488 19,700 -1,080 Descending Chicago Center
11:04AM 41.0356 -86.6703 310° West 440 506 18,500 -1,080 Descending Chicago Center
11:05AM 41.1158 -86.7956 310° West 434 499 17,600 -1,200 Descending Chicago Center
11:06AM 41.1919 -86.9164 310° West 429 494 16,100 -2,100 Descending Chicago Center
11:07AM 41.2650 -87.0325 310° West 416 479 13,400 -2,160 Descending Chicago Center
11:08AM 41.3339 -87.1436 310° West 401 461 11,700 -1,080 Descending Chicago Center
11:09AM 41.4333 -87.2667 317° Northwest 366 421 11,100 -360 Descending Chicago TRACON
11:10AM 41.4833 -87.3333 315° West 373 429 11,100  Level Chicago TRACON
11:11AM 41.5667 -87.4167 323° Northwest 380 437 11,100  Level Chicago TRACON
11:12AM 41.6500 -87.5167 318° Northwest 386 444 11,100 -240 Level Chicago TRACON
11:13AM 41.7167 -87.6000 317° Northwest 354 407 10,700 -480 Descending Chicago TRACON
11:13AM 41.7353 -87.6172 325° Northwest 360 414 10,500 -1,260 Descending Chicago Center
11:14AM 41.7833 -87.6667 323° Northwest 307 353 9,600 -1,440 Descending Chicago TRACON
11:15AM 41.8500 -87.7500 317° Northwest 306 352 8,200 -1,320 Descending Chicago TRACON
11:16AM 41.8667 -87.8333 285° West 284 327 7,100 -1,080 Descending Chicago TRACON
11:17AM 41.8333 -87.9167 242° Southwest 244 281 6,200 -1,200 Descending Chicago TRACON
11:18AM 41.8197 -87.9575 246° West 245 282 5,300 -1,320 Descending Chicago Center
11:19AM 41.7817 -88.0186 230° Southwest 234 269 4,100 -720 Descending Chicago Center
11:20AM 41.8269 -88.0439 337° Northwest 209 241 3,900 -540 Descending Chicago Center
11:21AM 41.8669 -88.0047 36° Northeast 189 217 3,000 -960 Descending Chicago Center
11:22AM 41.9033 -87.9597 43° Northeast 181 208 2,000 -900 Descending Chicago Center
11:23AM 41.9347 -87.9222 42° Northeast 168 193 1,200 -780 Descending Chicago Center
11:25AM 41.9667 -87.9000 312° West  Level FlightAware Approximate